Time;durP1;ratioP1;P1;durP2;ratioP2;P2;SDS_P1;SDS_P2;PMS_P1;PMS_P2;Temp;Humidity;BMP_temperature;BMP_pressure;BME280_temperature;BME280_humidity;BME280_pressure;Samples;Min_cycle;Max_cycle;Signal;HPM_P1;HPM_P2
2023/06/29 00:00:31;;;;;;;8.57;3.75;;;14.10;95.60;;;;;;5016152;28;20022;-72
2023/06/29 00:02:56;;;;;;;7.60;3.78;;;14.00;95.60;;;;;;5013991;28;20026;-73
2023/06/29 00:05:22;;;;;;;8.38;3.80;;;13.90;95.80;;;;;;4997881;28;20022;-73
2023/06/29 00:07:48;;;;;;;6.70;3.95;;;13.80;96.00;;;;;;5013947;28;20033;-72
2023/06/29 00:10:14;;;;;;;6.18;3.63;;;13.70;96.00;;;;;;4998036;28;20072;-72
2023/06/29 00:12:40;;;;;;;5.80;3.70;;;13.70;96.20;;;;;;5013806;28;20038;-73
2023/06/29 00:15:06;;;;;;;7.38;3.85;;;13.50;96.20;;;;;;4996390;28;20385;-73
2023/06/29 00:17:34;;;;;;;6.32;3.45;;;13.50;96.20;;;;;;5005441;28;20038;-72
2023/06/29 00:20:00;;;;;;;8.15;4.05;;;13.40;96.20;;;;;;5013389;28;20030;-72
2023/06/29 00:22:26;;;;;;;8.98;3.55;;;13.40;96.20;;;;;;5014618;28;20319;-72
2023/06/29 00:24:56;;;;;;;9.13;4.40;;;13.50;96.40;;;;;;5012220;28;20033;-72
2023/06/29 00:27:22;;;;;;;7.97;3.75;;;13.50;96.40;;;;;;5012215;28;20480;-72
2023/06/29 00:29:48;;;;;;;6.75;4.03;;;13.50;96.30;;;;;;4996305;28;20105;-72
2023/06/29 00:32:13;;;;;;;7.22;3.53;;;13.60;96.30;;;;;;5004252;28;20030;-72
2023/06/29 00:34:39;;;;;;;5.78;3.45;;;13.60;96.30;;;;;;5015042;28;20415;-72
2023/06/29 00:37:05;;;;;;;8.25;3.92;;;13.60;96.30;;;;;;5016651;28;20034;-73
2023/06/29 00:39:34;;;;;;;7.63;3.90;;;13.60;96.30;;;;;;5018178;28;20025;-72
2023/06/29 00:42:00;;;;;;;5.78;3.40;;;13.60;96.30;;;;;;5023104;28;20049;-73
2023/06/29 00:44:25;;;;;;;9.25;3.92;;;13.60;96.30;;;;;;5017644;28;20034;-72
2023/06/29 00:46:52;;;;;;;6.65;3.58;;;13.60;96.30;;;;;;5015751;28;20022;-72
2023/06/29 00:49:19;;;;;;;9.05;3.85;;;13.60;96.30;;;;;;5016532;28;20100;-72
2023/06/29 00:51:48;;;;;;;7.47;3.38;;;13.60;96.20;;;;;;5025204;28;20037;-72
2023/06/29 00:54:14;;;;;;;8.55;3.95;;;13.60;96.20;;;;;;5019286;28;20041;-72
2023/06/29 00:56:41;;;;;;;6.75;4.00;;;13.60;96.30;;;;;;5017682;28;20045;-72
2023/06/29 00:59:07;;;;;;;7.85;3.70;;;13.50;96.30;;;;;;5016289;28;20064;-72
2023/06/29 01:01:33;;;;;;;7.55;3.80;;;13.50;96.30;;;;;;5017659;28;20380;-73
2023/06/29 01:03:59;;;;;;;9.30;4.20;;;13.50;96.50;;;;;;5017720;28;20067;-72
2023/06/29 01:06:30;;;;;;;9.85;4.03;;;13.50;96.40;;;;;;5014848;28;20018;-72
2023/06/29 01:09:04;;;;;;;7.15;3.60;;;13.50;96.40;;;;;;5014734;28;20033;-72
2023/06/29 01:11:32;;;;;;;;;;;13.50;96.40;;;;;;5017526;28;20030;-73
2023/06/29 01:14:01;;;;;;;7.18;3.63;;;13.50;96.40;;;;;;5016559;28;19909;-73
2023/06/29 01:16:32;;;;;;;7.45;4.07;;;13.50;96.40;;;;;;5016090;28;20367;-73
2023/06/29 01:18:59;;;;;;;7.68;4.20;;;13.40;96.40;;;;;;5001454;28;20034;-72
2023/06/29 01:21:26;;;;;;;11.07;4.05;;;13.40;96.50;;;;;;5013171;28;20022;-72
2023/06/29 01:23:56;;;;;;;6.55;3.80;;;13.40;96.40;;;;;;5016735;28;20021;-73
2023/06/29 01:26:23;;;;;;;7.60;3.72;;;13.20;96.50;;;;;;5014711;28;20022;-72
2023/06/29 01:28:51;;;;;;;7.68;4.57;;;13.20;96.60;;;;;;5018417;28;20096;-73
2023/06/29 01:31:17;;;;;;;7.63;3.90;;;13.20;96.50;;;;;;5000390;28;20021;-72
2023/06/29 01:33:43;;;;;;;7.95;4.05;;;13.20;96.60;;;;;;5018640;28;20109;-73
2023/06/29 01:36:11;;;;;;;7.60;4.15;;;13.20;96.70;;;;;;5017568;28;20108;-72
2023/06/29 01:38:45;;;;;;;8.48;3.50;;;13.30;96.50;;;;;;5017760;28;20033;-72
2023/06/29 01:41:12;;;;;;;7.28;3.88;;;13.20;96.40;;;;;;5018484;28;20046;-73
2023/06/29 01:43:38;;;;;;;8.80;3.67;;;13.10;96.50;;;;;;5018468;28;20033;-73
2023/06/29 01:46:04;;;;;;;5.78;3.70;;;13.10;96.50;;;;;;5017911;28;20481;-73
2023/06/29 01:48:31;;;;;;;9.05;3.92;;;13.10;96.50;;;;;;4999335;28;20335;-72
2023/06/29 01:50:56;;;;;;;7.00;3.67;;;13.10;96.60;;;;;;5016557;28;20034;-73
2023/06/29 01:53:22;;;;;;;5.60;3.67;;;13.10;96.40;;;;;;5016705;28;20033;-73
2023/06/29 01:55:48;;;;;;;6.05;3.45;;;13.10;96.30;;;;;;5017050;28;20034;-72
2023/06/29 01:58:13;;;;;;;5.85;3.42;;;13.10;96.30;;;;;;5015416;28;20034;-73
2023/06/29 02:00:39;;;;;;;7.55;3.50;;;13.20;96.20;;;;;;5016626;28;20367;-73
2023/06/29 02:03:04;;;;;;;5.97;3.50;;;13.30;96.00;;;;;;5017111;28;20034;-73
2023/06/29 02:05:30;;;;;;;7.57;3.35;;;13.30;95.90;;;;;;5017032;28;20177;-73
2023/06/29 02:07:55;;;;;;;6.30;3.30;;;13.30;96.00;;;;;;5016326;28;20033;-73
2023/06/29 02:10:21;;;;;;;6.43;3.72;;;13.20;96.10;;;;;;5011850;28;20366;-73
2023/06/29 02:12:47;;;;;;;6.40;3.40;;;13.10;96.10;;;;;;5014148;28;20100;-73
2023/06/29 02:15:13;;;;;;;6.30;3.50;;;13.00;96.30;;;;;;5011296;28;20030;-72
2023/06/29 02:17:38;;;;;;;8.48;3.80;;;12.90;96.40;;;;;;5010566;28;20048;-73
2023/06/29 02:20:07;;;;;;;8.75;3.88;;;12.80;96.50;;;;;;4996686;28;20026;-72
2023/06/29 02:22:32;;;;;;;5.75;3.47;;;12.60;96.50;;;;;;5014412;28;20066;-73
2023/06/29 02:24:58;;;;;;;7.28;3.80;;;12.50;96.30;;;;;;5014257;28;20076;-73
2023/06/29 02:27:24;;;;;;;8.77;3.90;;;12.40;96.40;;;;;;5019923;28;20308;-73
2023/06/29 02:29:49;;;;;;;8.13;3.90;;;12.40;96.30;;;;;;5019878;28;20100;-73
2023/06/29 02:32:15;;;;;;;7.85;3.63;;;12.30;96.00;;;;;;5015250;28;20056;-73
2023/06/29 02:34:40;;;;;;;8.30;3.65;;;12.40;96.60;;;;;;5014791;28;20060;-72
2023/06/29 02:37:06;;;;;;;8.73;3.90;;;12.40;96.50;;;;;;5013663;28;20153;-72
2023/06/29 02:39:31;;;;;;;9.95;3.70;;;12.40;96.50;;;;;;5015316;28;20040;-73
2023/06/29 02:41:57;;;;;;;9.35;4.60;;;12.30;96.70;;;;;;5011268;28;20082;-73
2023/06/29 02:44:23;;;;;;;8.32;4.43;;;12.30;96.40;;;;;;5013479;28;20025;-73
2023/06/29 02:46:48;;;;;;;6.97;3.88;;;12.30;96.70;;;;;;5014005;28;20873;-73
2023/06/29 02:49:17;;;;;;;8.27;3.72;;;12.30;96.80;;;;;;4998501;28;20398;-73
2023/06/29 02:51:42;;;;;;;7.78;3.70;;;12.30;96.60;;;;;;5013534;28;20091;-73
2023/06/29 02:54:08;;;;;;;6.95;4.13;;;12.20;96.50;;;;;;5014365;28;20038;-73
2023/06/29 02:56:33;;;;;;;7.38;3.85;;;12.30;96.60;;;;;;5014690;28;20041;-72
2023/06/29 02:59:00;;;;;;;7.10;3.60;;;12.30;96.70;;;;;;5016130;28;20021;-72
2023/06/29 03:01:25;;;;;;;6.72;3.60;;;12.40;96.90;;;;;;5014841;28;20038;-73
2023/06/29 03:03:51;;;;;;;6.78;3.60;;;12.60;97.00;;;;;;5016035;28;20033;-72
2023/06/29 03:06:16;;;;;;;5.53;3.10;;;12.70;96.90;;;;;;5013603;28;20113;-72
2023/06/29 03:08:42;;;;;;;5.43;3.33;;;12.80;96.70;;;;;;5015212;28;20034;-72
2023/06/29 03:11:07;;;;;;;8.68;3.88;;;12.90;96.50;;;;;;5011868;28;21237;-72
2023/06/29 03:13:33;;;;;;;5.95;3.25;;;12.90;96.40;;;;;;5015385;28;20066;-73
2023/06/29 03:16:00;;;;;;;6.65;3.28;;;13.00;96.40;;;;;;5014744;28;20038;-72
2023/06/29 03:18:26;;;;;;;5.72;2.90;;;12.90;96.40;;;;;;5015653;28;20022;-73
2023/06/29 03:20:55;;;;;;;4.80;3.17;;;12.90;96.40;;;;;;5013782;28;20018;-72
2023/06/29 03:23:20;;;;;;;5.68;3.42;;;13.00;96.30;;;;;;4999343;28;20022;-73
2023/06/29 03:25:46;;;;;;;6.18;3.38;;;13.00;96.20;;;;;;5015005;28;20560;-73
2023/06/29 03:28:12;;;;;;;6.53;3.50;;;13.00;96.10;;;;;;5016394;28;20366;-72
2023/06/29 03:30:37;;;;;;;5.20;3.40;;;13.00;96.20;;;;;;5015079;28;20084;-73
2023/06/29 03:33:04;;;;;;;5.63;3.20;;;12.90;96.20;;;;;;5014793;28;20386;-73
2023/06/29 03:35:29;;;;;;;7.65;3.15;;;12.90;96.30;;;;;;5014838;28;20026;-72
2023/06/29 03:37:55;;;;;;;7.60;3.97;;;13.10;96.10;;;;;;5012919;28;20121;-72
2023/06/29 03:40:20;;;;;;;6.93;4.25;;;13.10;96.10;;;;;;5012900;28;20108;-72
2023/06/29 03:42:46;;;;;;;7.47;4.15;;;13.10;96.00;;;;;;5014358;28;20061;-71
2023/06/29 03:45:14;;;;;;;7.10;3.53;;;13.10;96.00;;;;;;5014174;28;20089;-72
2023/06/29 03:47:40;;;;;;;6.13;3.78;;;13.10;96.20;;;;;;5013661;28;20062;-72
2023/06/29 03:50:06;;;;;;;8.30;3.40;;;13.10;96.20;;;;;;5014841;28;20084;-72
2023/06/29 03:52:31;;;;;;;6.30;3.75;;;13.00;96.20;;;;;;4996293;28;20088;-72
2023/06/29 03:55:00;;;;;;;6.68;3.78;;;12.90;96.40;;;;;;5013036;28;20041;-73
2023/06/29 03:57:26;;;;;;;6.88;3.90;;;12.80;96.70;;;;;;5012338;28;20071;-72
2023/06/29 03:59:51;;;;;;;5.47;3.47;;;12.60;96.70;;;;;;5016346;28;20025;-72
2023/06/29 04:02:17;;;;;;;5.90;3.88;;;12.50;96.60;;;;;;4997294;28;20018;-72
2023/06/29 04:04:43;;;;;;;7.63;3.95;;;12.40;96.50;;;;;;5016233;28;20108;-72
2023/06/29 04:07:09;;;;;;;6.00;3.50;;;12.40;96.30;;;;;;5011748;28;20041;-73
2023/06/29 04:09:34;;;;;;;9.55;4.07;;;12.40;96.30;;;;;;4996252;28;20054;-72
2023/06/29 04:12:00;;;;;;;6.30;3.72;;;12.40;96.40;;;;;;5012352;28;20037;-72
2023/06/29 04:14:25;;;;;;;5.65;3.40;;;12.30;96.30;;;;;;5013466;28;20029;-72
2023/06/29 04:16:54;;;;;;;7.15;3.80;;;12.30;96.00;;;;;;5011861;28;20034;-73
2023/06/29 04:19:19;;;;;;;5.53;3.25;;;12.40;96.20;;;;;;5013376;28;20029;-73
2023/06/29 04:21:45;;;;;;;5.07;3.38;;;12.50;96.30;;;;;;5010223;28;20076;-71
2023/06/29 04:24:13;;;;;;;7.53;3.40;;;12.60;96.50;;;;;;5012254;28;20156;-73
2023/06/29 04:26:41;;;;;;;6.82;3.58;;;12.70;96.80;;;;;;5011442;28;20022;-74
2023/06/29 04:29:06;;;;;;;7.90;3.22;;;12.80;97.10;;;;;;5012761;28;20372;-73
2023/06/29 04:31:33;;;;;;;6.40;3.10;;;12.90;96.90;;;;;;5013625;28;20026;-72
2023/06/29 04:33:58;;;;;;;6.55;2.95;;;13.00;96.90;;;;;;5012751;28;20410;-72
2023/06/29 04:36:25;;;;;;;6.45;2.67;;;13.00;97.00;;;;;;5011849;28;20045;-73
2023/06/29 04:38:50;;;;;;;6.22;2.72;;;13.10;96.80;;;;;;4993313;28;20034;-72
2023/06/29 04:41:16;;;;;;;5.38;3.28;;;13.20;96.80;;;;;;5015537;28;20053;-73
2023/06/29 04:43:47;;;;;;;7.93;3.33;;;13.40;96.90;;;;;;5013928;28;20128;-72
2023/06/29 04:46:14;;;;;;;6.30;3.15;;;13.40;97.10;;;;;;5014776;28;20022;-73
2023/06/29 04:48:39;;;;;;;5.03;2.88;;;13.50;97.00;;;;;;4995035;28;20026;-72
2023/06/29 04:51:06;;;;;;;6.22;2.88;;;13.60;96.80;;;;;;5013863;28;20418;-73
2023/06/29 04:53:33;;;;;;;6.18;3.22;;;13.70;96.80;;;;;;5014139;28;20113;-73
2023/06/29 04:55:59;;;;;;;6.80;3.00;;;13.60;96.70;;;;;;5014300;28;20038;-73
2023/06/29 04:58:28;;;;;;;7.03;2.83;;;13.60;96.70;;;;;;4994669;28;20371;-73
2023/06/29 05:00:56;;;;;;;6.43;3.13;;;13.70;96.80;;;;;;5004728;28;20022;-73
2023/06/29 05:03:23;;;;;;;7.55;3.70;;;13.70;96.70;;;;;;5014694;28;20049;-73
2023/06/29 05:05:48;;;;;;;8.82;4.20;;;13.70;96.70;;;;;;5006294;28;20038;-73
2023/06/29 05:08:14;;;;;;;5.13;3.22;;;13.80;96.80;;;;;;5011125;28;20026;-73
2023/06/29 05:10:39;;;;;;;7.72;3.70;;;13.90;96.70;;;;;;5014216;28;20062;-73
2023/06/29 05:13:05;;;;;;;7.13;3.72;;;14.00;96.80;;;;;;5013851;28;20033;-73
2023/06/29 05:15:31;;;;;;;6.32;3.75;;;14.10;96.60;;;;;;4998858;28;20057;-73
2023/06/29 05:17:56;;;;;;;8.15;3.90;;;14.20;96.80;;;;;;4995863;28;20061;-73
2023/06/29 05:20:22;;;;;;;9.02;3.50;;;14.30;96.70;;;;;;4995594;28;20019;-73
2023/06/29 05:22:47;;;;;;;8.90;3.47;;;14.40;96.50;;;;;;4998822;28;20029;-73
2023/06/29 05:25:14;;;;;;;8.60;4.55;;;14.50;95.80;;;;;;5015164;28;20026;-73
2023/06/29 05:27:40;;;;;;;14.50;6.03;;;14.60;95.70;;;;;;5018799;28;20030;-74
2023/06/29 05:30:08;;;;;;;8.63;4.65;;;14.80;95.50;;;;;;5014792;28;20048;-73
2023/06/29 05:32:34;;;;;;;13.35;5.60;;;14.80;94.90;;;;;;5005425;28;20033;-73
2023/06/29 05:35:00;;;;;;;12.57;5.43;;;15.00;94.90;;;;;;4999463;28;20030;-72
2023/06/29 05:37:25;;;;;;;10.38;4.45;;;15.20;94.60;;;;;;4998048;28;20034;-73
2023/06/29 05:39:51;;;;;;;8.30;3.70;;;15.30;94.40;;;;;;5014378;28;20041;-73
2023/06/29 05:42:16;;;;;;;9.13;4.50;;;15.50;93.50;;;;;;5017606;28;20423;-73
2023/06/29 05:44:42;;;;;;;8.40;3.72;;;15.80;93.00;;;;;;5001212;28;20030;-73
2023/06/29 05:47:08;;;;;;;7.63;3.45;;;16.00;91.90;;;;;;5024199;28;20018;-73
2023/06/29 05:49:33;;;;;;;5.05;2.70;;;16.30;91.70;;;;;;5004771;28;20026;-73
2023/06/29 05:51:59;;;;;;;4.93;2.80;;;16.50;91.50;;;;;;4997995;28;20034;-73
2023/06/29 05:54:24;;;;;;;7.70;3.08;;;16.70;91.10;;;;;;5004831;28;20050;-73
2023/06/29 05:56:50;;;;;;;7.05;2.75;;;16.90;90.50;;;;;;5016282;28;20087;-73
2023/06/29 05:59:16;;;;;;;12.38;2.70;;;17.00;90.60;;;;;;4999709;28;20041;-73
2023/06/29 06:01:41;;;;;;;7.03;2.90;;;17.10;90.20;;;;;;5010979;28;20432;-73
2023/06/29 06:04:07;;;;;;;6.07;2.72;;;17.30;89.50;;;;;;5011790;28;20030;-73
2023/06/29 06:06:32;;;;;;;7.18;2.80;;;17.50;88.40;;;;;;5009417;28;20354;-73
2023/06/29 06:08:59;;;;;;;6.50;2.70;;;17.70;87.80;;;;;;5014943;28;20026;-73
2023/06/29 06:11:25;;;;;;;6.43;2.63;;;17.90;87.50;;;;;;5022605;28;20025;-73
2023/06/29 06:13:50;;;;;;;4.70;2.20;;;18.00;86.30;;;;;;5029079;28;20026;-73
2023/06/29 06:16:16;;;;;;;4.90;2.35;;;18.20;84.40;;;;;;5017701;28;20036;-73
2023/06/29 06:18:41;;;;;;;6.32;2.55;;;18.40;84.20;;;;;;5006700;28;20034;-73
2023/06/29 06:21:07;;;;;;;5.65;3.05;;;18.60;84.10;;;;;;5012165;28;20030;-73
2023/06/29 06:23:33;;;;;;;6.60;2.70;;;18.70;83.60;;;;;;5016370;28;20037;-73
2023/06/29 06:25:58;;;;;;;5.63;3.10;;;18.60;83.30;;;;;;5009184;28;20160;-73
2023/06/29 06:28:26;;;;;;;6.68;2.63;;;18.70;83.50;;;;;;5016924;28;20026;-73
2023/06/29 06:30:52;;;;;;;4.80;2.53;;;19.10;82.40;;;;;;5016025;28;20061;-73
2023/06/29 06:33:18;;;;;;;7.88;3.30;;;19.10;80.70;;;;;;4993674;28;20061;-71
2023/06/29 06:35:46;;;;;;;7.63;2.70;;;19.20;81.00;;;;;;4996973;28;20163;-71
2023/06/29 06:38:12;;;;;;;7.72;2.85;;;19.30;80.90;;;;;;5006059;28;20832;-71
2023/06/29 06:40:37;;;;;;;5.90;2.90;;;19.50;81.20;;;;;;5016682;28;20037;-72
2023/06/29 06:43:03;;;;;;;6.80;2.90;;;19.60;82.60;;;;;;5016791;28;20041;-72
2023/06/29 06:45:39;;;;;;;6.63;2.70;;;19.60;82.90;;;;;;5016462;28;20018;-72
2023/06/29 06:48:07;;;;;;;7.93;3.38;;;19.70;80.10;;;;;;5014433;28;20325;-73
2023/06/29 06:50:33;;;;;;;7.10;2.88;;;19.80;79.20;;;;;;5015264;28;20030;-71
2023/06/29 06:52:58;;;;;;;5.90;2.78;;;20.30;78.70;;;;;;5017488;28;20487;-72
2023/06/29 06:55:24;;;;;;;6.82;2.33;;;20.90;77.30;;;;;;4998517;28;20031;-73
2023/06/29 06:57:49;;;;;;;9.55;2.50;;;21.60;75.80;;;;;;4998341;28;20030;-73
2023/06/29 07:00:16;;;;;;;6.45;2.63;;;22.20;74.50;;;;;;5016454;28;20034;-73
2023/06/29 07:02:42;;;;;;;5.45;2.22;;;22.60;74.30;;;;;;5015924;28;20022;-73
2023/06/29 07:05:08;;;;;;;7.63;2.33;;;23.00;74.70;;;;;;5012294;28;20466;-72
2023/06/29 07:07:33;;;;;;;7.35;3.00;;;23.00;74.30;;;;;;5014331;28;20022;-72
2023/06/29 07:09:59;;;;;;;9.23;3.03;;;23.00;74.90;;;;;;5012322;28;20037;-72
2023/06/29 07:12:24;;;;;;;7.35;3.10;;;23.00;76.00;;;;;;5015692;28;20526;-72
2023/06/29 07:14:50;;;;;;;5.35;2.40;;;22.80;76.20;;;;;;5014683;28;20030;-73
2023/06/29 07:17:16;;;;;;;6.10;2.70;;;22.50;77.10;;;;;;5013790;28;20029;-72
2023/06/29 07:19:41;;;;;;;7.60;2.70;;;22.30;77.50;;;;;;5013121;28;20144;-73
2023/06/29 07:22:10;;;;;;;7.90;3.25;;;22.10;78.10;;;;;;5011362;28;20054;-73
2023/06/29 07:24:35;;;;;;;8.55;3.30;;;21.90;78.50;;;;;;5011968;28;20100;-73
2023/06/29 07:27:01;;;;;;;4.95;2.58;;;22.30;77.90;;;;;;5010935;28;20080;-72
2023/06/29 07:29:27;;;;;;;7.10;2.80;;;22.80;77.20;;;;;;5012224;28;20045;-73
2023/06/29 07:31:53;;;;;;;6.82;3.17;;;23.30;76.30;;;;;;5011675;28;20108;-72
2023/06/29 07:34:23;;;;;;;8.93;3.05;;;24.00;74.10;;;;;;5012493;28;20132;-73
2023/06/29 07:36:48;;;;;;;6.30;2.35;;;24.80;70.70;;;;;;5015290;28;20046;-73
2023/06/29 07:39:14;;;;;;;7.22;2.50;;;24.80;72.60;;;;;;5005857;28;20030;-73
2023/06/29 07:41:39;;;;;;;6.95;3.00;;;25.40;71.10;;;;;;5016542;28;20050;-73
2023/06/29 07:44:06;;;;;;;7.18;2.78;;;25.30;69.90;;;;;;5014587;28;20322;-73
2023/06/29 07:46:31;;;;;;;7.50;2.28;;;24.70;71.80;;;;;;5008563;28;20026;-74
2023/06/29 07:48:58;;;;;;;7.25;2.88;;;24.80;72.10;;;;;;5020455;28;20036;-72
2023/06/29 07:51:25;;;;;;;10.65;3.17;;;24.90;71.20;;;;;;5000171;28;20327;-72
2023/06/29 07:53:52;;;;;;;6.22;2.75;;;24.80;71.20;;;;;;5013834;28;20038;-73
2023/06/29 07:56:18;;;;;;;7.28;3.08;;;24.60;72.10;;;;;;5008047;28;20026;-73
2023/06/29 07:58:43;;;;;;;6.68;2.67;;;24.90;72.10;;;;;;5008571;28;20116;-73
2023/06/29 08:01:09;;;;;;;6.75;3.03;;;25.40;70.70;;;;;;5015293;28;20022;-73
2023/06/29 08:03:34;;;;;;;6.88;2.92;;;25.30;70.00;;;;;;5005157;28;20096;-74
2023/06/29 08:06:00;;;;;;;6.47;2.40;;;25.40;70.40;;;;;;5013861;28;20022;-72
2023/06/29 08:08:29;;;;;;;7.28;2.83;;;25.40;70.40;;;;;;5012898;28;20022;-72
2023/06/29 08:10:55;;;;;;;8.68;2.78;;;25.00;71.20;;;;;;5018288;28;20101;-72
2023/06/29 08:13:21;;;;;;;5.47;2.65;;;24.90;71.50;;;;;;5006631;28;20537;-72
2023/06/29 08:15:46;;;;;;;5.97;2.58;;;24.80;71.70;;;;;;5016250;28;20034;-73
2023/06/29 08:18:12;;;;;;;5.70;2.67;;;25.80;70.70;;;;;;5015189;28;20037;-73
2023/06/29 08:20:38;;;;;;;6.75;2.35;;;27.00;67.30;;;;;;5011532;28;20054;-72
2023/06/29 08:23:04;;;;;;;6.90;2.35;;;27.70;64.90;;;;;;5012496;28;20288;-73
2023/06/29 08:25:30;;;;;;;6.60;2.30;;;28.10;65.20;;;;;;5020696;28;20084;-73
2023/06/29 08:27:55;;;;;;;5.57;2.40;;;28.10;63.00;;;;;;5012456;28;20022;-73
2023/06/29 08:30:21;;;;;;;5.78;2.53;;;27.80;65.10;;;;;;5015461;28;20061;-72
2023/06/29 08:32:48;;;;;;;9.52;2.97;;;28.30;63.10;;;;;;5003383;28;20649;-74
2023/06/29 08:35:14;;;;;;;6.75;2.58;;;28.00;63.20;;;;;;5013032;28;20137;-73
2023/06/29 08:37:40;;;;;;;8.65;2.72;;;27.50;64.50;;;;;;5014641;28;20026;-72
2023/06/29 08:40:06;;;;;;;4.40;2.22;;;27.70;62.90;;;;;;5014860;28;20029;-73
2023/06/29 08:42:32;;;;;;;5.63;2.35;;;28.40;62.10;;;;;;5010422;28;20038;-72
2023/06/29 08:44:58;;;;;;;6.13;2.50;;;28.60;61.70;;;;;;5015104;28;20038;-72
2023/06/29 08:47:24;;;;;;;6.72;2.20;;;29.00;61.10;;;;;;5015034;28;20054;-73
2023/06/29 08:49:56;;;;;;;5.35;2.67;;;29.20;60.60;;;;;;5014865;28;20050;-73
2023/06/29 08:52:25;;;;;;;6.72;2.60;;;29.30;60.00;;;;;;5013739;28;20022;-73
2023/06/29 08:54:52;;;;;;;7.28;2.55;;;30.20;59.10;;;;;;5014575;28;20022;-72
2023/06/29 08:57:19;;;;;;;4.97;2.10;;;29.60;57.50;;;;;;4998817;28;20324;-72
2023/06/29 08:59:47;;;;;;;9.40;2.40;;;30.20;59.00;;;;;;5017935;28;20029;-72
2023/06/29 09:02:13;;;;;;;5.72;2.17;;;29.70;58.30;;;;;;5019070;28;20419;-72
2023/06/29 09:04:40;;;;;;;5.28;2.78;;;29.10;59.60;;;;;;5016747;28;20046;-72
2023/06/29 09:07:05;;;;;;;5.72;2.50;;;27.60;63.00;;;;;;5018296;28;20084;-74
2023/06/29 09:09:34;;;;;;;6.05;2.65;;;26.90;64.70;;;;;;5006790;28;20030;-73
2023/06/29 09:12:03;;;;;;;5.93;2.83;;;27.10;64.40;;;;;;5018416;28;20036;-72
2023/06/29 09:14:28;;;;;;;6.57;2.50;;;27.60;62.90;;;;;;5015996;28;20022;-72
2023/06/29 09:17:01;;;;;;;7.63;2.63;;;28.10;63.20;;;;;;5018363;28;20449;-72
2023/06/29 09:19:27;;;;;;;7.35;2.63;;;29.00;61.60;;;;;;5018408;28;20033;-74
2023/06/29 09:21:53;;;;;;;5.97;2.55;;;29.00;61.30;;;;;;5014410;28;20032;-72
2023/06/29 09:24:19;;;;;;;5.10;2.33;;;29.00;60.60;;;;;;5018038;28;20100;-72
2023/06/29 09:26:51;;;;;;;8.73;2.50;;;29.50;60.50;;;;;;5019138;28;20438;-73
2023/06/29 09:29:17;;;;;;;6.50;2.50;;;30.80;57.90;;;;;;5016866;28;20029;-72
2023/06/29 09:31:58;;;;;;;7.13;2.58;;;31.20;56.90;;;;;;5018819;28;20041;-72
2023/06/29 09:34:26;;;;;;;6.28;2.33;;;30.80;55.90;;;;;;4998494;28;20049;-72
2023/06/29 09:36:53;;;;;;;4.72;1.95;;;31.00;55.90;;;;;;5016812;28;20076;-72
2023/06/29 09:39:20;;;;;;;5.88;2.58;;;32.10;55.80;;;;;;5017833;28;20053;-71
2023/06/29 09:41:50;;;;;;;5.57;2.10;;;32.10;53.60;;;;;;5013026;28;20349;-71
2023/06/29 09:44:20;;;;;;;6.03;2.47;;;31.60;55.30;;;;;;5013531;28;20034;-73
2023/06/29 09:46:50;;;;;;;5.68;2.50;;;31.80;55.10;;;;;;5016842;28;20092;-73
2023/06/29 09:49:18;;;;;;;5.70;2.30;;;30.90;56.20;;;;;;5018165;28;20030;-73
2023/06/29 09:51:44;;;;;;;5.90;2.40;;;30.80;55.50;;;;;;5016546;28;20047;-72
2023/06/29 09:54:11;;;;;;;6.95;2.35;;;29.90;55.70;;;;;;5017062;28;20022;-73
2023/06/29 09:56:37;;;;;;;5.43;2.17;;;30.00;56.60;;;;;;4999003;28;20034;-72
2023/06/29 09:59:03;;;;;;;5.60;2.70;;;30.90;55.40;;;;;;5003056;28;20088;-73
2023/06/29 10:01:30;;;;;;;6.55;2.28;;;30.90;55.40;;;;;;5018568;28;20045;-73
2023/06/29 10:03:56;;;;;;;6.25;2.22;;;31.40;55.00;;;;;;5012309;28;20054;-72
2023/06/29 10:06:31;;;;;;;7.65;2.40;;;31.60;54.80;;;;;;4997736;28;20030;-73
2023/06/29 10:08:59;;;;;;;6.20;2.45;;;32.30;54.20;;;;;;5015342;28;20451;-73
2023/06/29 10:11:31;;;;;;;7.35;2.90;;;32.30;53.50;;;;;;4981550;28;20121;-72
2023/06/29 10:14:02;;;;;;;6.55;2.53;;;32.00;53.40;;;;;;5016116;28;20029;-72
2023/06/29 10:16:32;;;;;;;4.25;2.10;;;31.90;53.80;;;;;;5008646;28;20030;-72
2023/06/29 10:19:06;;;;;;;5.60;2.38;;;31.80;55.10;;;;;;5004862;28;20326;-73
2023/06/29 10:21:32;;;;;;;6.53;2.70;;;30.60;56.90;;;;;;5014929;28;20030;-74
2023/06/29 10:23:58;;;;;;;8.40;3.00;;;30.00;57.60;;;;;;5002671;28;20022;-74
2023/06/29 10:26:24;;;;;;;7.05;3.35;;;29.90;57.50;;;;;;4998505;28;20022;-74
2023/06/29 10:28:50;;;;;;;5.95;2.85;;;30.90;55.70;;;;;;4998561;28;20434;-72
2023/06/29 10:31:21;;;;;;;7.22;3.70;;;31.60;54.20;;;;;;5014728;28;20030;-73
2023/06/29 10:33:50;;;;;;;6.78;3.83;;;31.60;52.40;;;;;;5010520;28;20034;-73
2023/06/29 10:36:17;;;;;;;8.00;3.63;;;31.80;52.80;;;;;;4997278;28;20026;-73
2023/06/29 10:38:42;;;;;;;6.10;2.65;;;32.50;52.90;;;;;;4997989;28;20033;-74
2023/06/29 10:41:27;;;;;;;8.13;3.00;;;32.70;53.10;;;;;;5012473;28;20343;-72
2023/06/29 10:43:58;;;;;;;5.93;3.50;;;33.20;52.00;;;;;;4998160;28;20497;-73
2023/06/29 10:46:49;;;;;;;5.53;3.50;;;32.60;51.00;;;;;;4998101;28;20462;-72
2023/06/29 10:49:22;;;;;;;6.40;3.78;;;31.10;52.50;;;;;;5012825;28;20041;-72
2023/06/29 10:51:52;;;;;;;6.70;3.55;;;29.80;54.70;;;;;;5014131;28;20113;-73
2023/06/29 10:54:23;;;;;;;7.30;3.97;;;29.30;56.10;;;;;;5013778;28;20027;-72
2023/06/29 10:56:57;;;;;;;6.53;3.70;;;29.50;55.50;;;;;;4980594;28;20026;-72
2023/06/29 10:59:23;;;;;;;6.50;3.80;;;30.10;55.60;;;;;;5001356;28;20322;-72
2023/06/29 11:01:50;;;;;;;8.20;4.50;;;30.80;53.80;;;;;;5005773;28;20027;-73
2023/06/29 11:04:16;;;;;;;7.15;3.97;;;30.70;52.80;;;;;;4997583;28;20033;-73
2023/06/29 11:06:42;;;;;;;6.95;3.92;;;30.30;53.40;;;;;;5015258;28;20033;-73
2023/06/29 11:09:14;;;;;;;8.70;4.03;;;29.60;55.40;;;;;;5016885;28;20176;-72
2023/06/29 11:11:42;;;;;;;7.47;4.22;;;28.90;56.70;;;;;;5016873;28;20423;-72
2023/06/29 11:14:11;;;;;;;7.00;3.78;;;28.50;56.30;;;;;;5016983;28;20030;-73
2023/06/29 11:16:39;;;;;;;6.68;3.78;;;28.40;57.80;;;;;;5008091;28;20375;-72
2023/06/29 11:19:05;;;;;;;9.50;4.28;;;28.30;57.20;;;;;;5005771;28;20025;-73
2023/06/29 11:21:30;;;;;;;7.82;3.95;;;28.80;57.50;;;;;;5012192;28;20490;-73
2023/06/29 11:23:56;;;;;;;8.48;3.80;;;29.40;56.30;;;;;;5024262;28;20120;-72
2023/06/29 11:26:23;;;;;;;8.13;3.90;;;29.70;56.10;;;;;;5015975;28;20473;-73
2023/06/29 11:28:52;;;;;;;5.82;3.30;;;30.00;56.30;;;;;;5016773;28;20038;-73
2023/06/29 11:31:19;;;;;;;6.82;3.47;;;30.70;54.30;;;;;;5016700;28;20026;-73
2023/06/29 11:33:49;;;;;;;7.55;4.25;;;31.50;53.70;;;;;;5015441;28;20040;-72
2023/06/29 11:36:46;;;;;;;7.50;4.18;;;32.30;53.00;;;;;;5010314;28;20033;-71
2023/06/29 11:39:13;;;;;;;9.68;4.32;;;33.00;50.00;;;;;;5009426;28;20037;-72
2023/06/29 11:41:42;;;;;;;8.80;4.53;;;33.50;50.80;;;;;;5015220;28;20053;-72
2023/06/29 11:44:08;;;;;;;7.93;3.92;;;34.10;48.80;;;;;;5002479;28;20050;-72
2023/06/29 11:46:34;;;;;;;6.82;3.60;;;34.20;49.50;;;;;;4997163;28;20022;-72
2023/06/29 11:49:02;;;;;;;8.95;3.72;;;34.30;48.80;;;;;;5000428;28;20323;-72
2023/06/29 11:51:29;;;;;;;10.18;4.35;;;33.00;50.20;;;;;;5015158;28;20022;-72
2023/06/29 11:53:58;;;;;;;10.68;4.00;;;32.20;51.10;;;;;;5016059;28;20103;-68
2023/06/29 11:56:33;;;;;;;7.45;3.50;;;31.80;52.20;;;;;;5012608;28;20032;-72
2023/06/29 11:59:07;;;;;;;8.82;3.75;;;31.00;53.80;;;;;;4996689;28;20032;-72
2023/06/29 12:01:35;;;;;;;8.20;4.25;;;30.10;54.80;;;;;;4996899;28;20600;-72
2023/06/29 12:04:03;;;;;;;9.55;4.80;;;30.00;55.30;;;;;;4998145;28;20491;-72
2023/06/29 12:06:28;;;;;;;8.23;3.95;;;30.70;54.40;;;;;;5014501;28;20616;-72
2023/06/29 12:08:54;;;;;;;6.97;4.18;;;31.00;53.30;;;;;;5009343;28;20030;-72
2023/06/29 12:11:19;;;;;;;8.02;4.15;;;31.60;52.40;;;;;;4998664;28;20117;-71
2023/06/29 12:13:48;;;;;;;10.27;4.55;;;31.60;52.70;;;;;;5008060;28;20101;-72
2023/06/29 12:16:16;;;;;;;8.75;5.05;;;32.30;52.00;;;;;;5013487;28;20323;-72
2023/06/29 12:18:42;;;;;;;11.80;5.20;;;32.70;52.00;;;;;;5013175;28;20359;-72
2023/06/29 12:21:10;;;;;;;9.52;4.82;;;32.30;51.60;;;;;;5011226;28;20046;-72
2023/06/29 12:23:36;;;;;;;9.10;5.30;;;31.50;52.30;;;;;;5016109;28;20018;-72
2023/06/29 12:26:02;;;;;;;8.60;5.28;;;31.30;52.70;;;;;;5016162;28;20024;-71
2023/06/29 12:28:28;;;;;;;8.82;5.10;;;31.20;53.30;;;;;;5011617;28;20428;-71
2023/06/29 12:30:53;;;;;;;9.77;5.22;;;31.00;53.40;;;;;;5004164;28;20034;-71
2023/06/29 12:33:19;;;;;;;10.50;5.82;;;30.80;53.80;;;;;;5004389;28;20029;-71
2023/06/29 12:35:45;;;;;;;9.57;5.32;;;30.20;54.70;;;;;;5016288;28;20037;-71
2023/06/29 12:38:11;;;;;;;7.78;4.63;;;29.50;55.20;;;;;;4998151;28;20065;-72
2023/06/29 12:40:40;;;;;;;11.15;5.53;;;29.80;55.20;;;;;;5013650;28;20439;-73
2023/06/29 12:43:06;;;;;;;11.48;5.68;;;30.60;53.60;;;;;;5001478;28;20493;-71